createdAt,value
2023-03-01T00:01:14.425Z,-1.00
2023-03-01T00:03:41.647Z,-1.00
2023-03-01T00:06:08.550Z,-1.00
2023-03-01T00:08:35.658Z,-1.00
2023-03-01T00:11:15.721Z,-1.00
2023-03-01T00:13:43.605Z,-1.00
2023-03-01T00:16:13.325Z,-1.00
2023-03-01T00:18:41.901Z,-1.00
2023-03-01T00:21:08.796Z,-1.00
2023-03-01T00:23:36.570Z,-1.00
2023-03-01T00:26:06.889Z,-1.00
2023-03-01T00:28:34.480Z,-1.00
2023-03-01T00:31:06.341Z,-1.00
2023-03-01T00:33:34.416Z,-1.00
2023-03-01T00:36:01.807Z,-1.00
2023-03-01T00:38:29.004Z,-1.00
2023-03-01T00:40:55.775Z,-1.00
2023-03-01T00:43:26.179Z,-1.00
2023-03-01T00:45:53.356Z,-1.00
2023-03-01T00:48:20.255Z,-1.00
2023-03-01T00:50:47.173Z,-1.00
2023-03-01T00:53:14.454Z,-1.00
2023-03-01T00:55:41.320Z,-1.00
2023-03-01T00:58:08.552Z,-1.00
2023-03-01T01:00:35.551Z,-1.00
2023-03-01T01:03:02.397Z,-1.00
2023-03-01T01:05:29.317Z,-1.00
2023-03-01T01:07:57.263Z,-1.00
2023-03-01T01:10:25.468Z,-1.00
2023-03-01T01:12:56.405Z,-1.00
2023-03-01T01:15:23.697Z,-1.00
2023-03-01T01:17:50.736Z,-1.00
2023-03-01T01:20:21.321Z,-1.00
2023-03-01T01:28:09.379Z,-1.00
2023-03-01T01:30:36.427Z,-1.00
2023-03-01T01:33:03.575Z,-1.00
2023-03-01T01:35:30.430Z,-1.00
2023-03-01T01:38:02.001Z,-1.00
2023-03-01T01:40:29.435Z,-1.00
2023-03-01T01:42:56.554Z,-1.00
2023-03-01T01:45:36.726Z,-1.00
2023-03-01T01:48:14.981Z,-1.00
2023-03-01T01:50:45.497Z,-1.00
2023-03-01T01:53:16.916Z,-1.00
2023-03-01T01:55:46.601Z,-1.00
2023-03-01T01:58:16.541Z,-1.00
2023-03-01T02:00:46.179Z,-1.00
2023-03-01T02:03:19.743Z,-1.00
2023-03-01T02:06:07.647Z,-1.00
2023-03-01T02:08:37.618Z,-1.00
2023-03-01T02:11:05.482Z,-1.00
2023-03-01T02:13:33.250Z,-1.00
2023-03-01T02:16:00.996Z,-1.00
2023-03-01T02:18:27.989Z,-1.00
2023-03-01T02:21:32.665Z,-1.00
2023-03-01T02:24:31.567Z,-1.00
2023-03-01T02:26:58.566Z,-1.00
2023-03-01T02:29:25.524Z,-1.00
2023-03-01T02:31:53.809Z,-1.00
2023-03-01T02:34:25.809Z,-1.00
2023-03-01T02:36:57.723Z,-1.00
2023-03-01T02:39:30.432Z,-1.00
2023-03-01T02:41:59.375Z,-1.00
2023-03-01T02:44:26.528Z,-1.00
2023-03-01T02:46:54.788Z,-1.00
2023-03-01T02:49:26.011Z,-1.00
2023-03-01T02:52:20.319Z,-1.00
2023-03-01T02:54:48.237Z,-1.00
2023-03-01T02:57:17.134Z,-1.00
2023-03-01T02:59:44.106Z,-1.00
2023-03-01T03:02:38.316Z,-1.00
2023-03-01T03:05:18.995Z,-1.00
2023-03-01T03:07:47.982Z,-1.00
2023-03-01T03:10:25.682Z,-1.00
2023-03-01T03:12:55.127Z,-1.00
2023-03-01T03:15:22.597Z,-1.00
2023-03-01T03:17:50.133Z,-1.00
2023-03-01T03:20:19.417Z,-1.00
2023-03-01T03:22:51.337Z,-1.00
2023-03-01T03:25:18.768Z,-1.00
2023-03-01T03:27:47.905Z,-1.00
2023-03-01T03:30:20.184Z,-1.00
2023-03-01T03:32:54.174Z,-1.00
2023-03-01T03:35:30.554Z,-1.00
2023-03-01T03:38:04.374Z,-1.00
2023-03-01T03:40:35.234Z,-1.00
2023-03-01T03:43:03.599Z,-1.00
2023-03-01T03:45:37.011Z,-1.00
2023-03-01T03:48:06.862Z,-1.00
2023-03-01T03:50:33.900Z,-1.00
2023-03-01T03:53:02.025Z,-1.00
2023-03-01T03:55:31.074Z,-1.00
2023-03-01T03:58:02.429Z,-1.00
2023-03-01T04:00:30.251Z,-1.00
2023-03-01T04:02:58.024Z,-1.00
2023-03-01T04:05:24.863Z,-1.00
2023-03-01T04:08:01.454Z,-1.00
2023-03-01T04:10:29.885Z,-1.00
2023-03-01T04:12:57.455Z,-1.00
2023-03-01T04:15:25.119Z,-1.00
2023-03-01T04:17:53.250Z,-1.00
2023-03-01T04:20:30.528Z,-1.00
2023-03-01T04:23:10.973Z,-1.00
2023-03-01T04:25:39.603Z,-1.00
2023-03-01T04:28:06.756Z,-1.00
2023-03-01T04:30:36.289Z,-1.00
2023-03-01T04:33:06.357Z,-1.00
2023-03-01T04:35:33.496Z,-1.00
2023-03-01T04:38:03.723Z,-1.00
2023-03-01T04:40:32.073Z,-1.00
2023-03-01T04:43:00.371Z,-1.00
2023-03-01T04:45:28.266Z,-1.00
2023-03-01T04:47:55.085Z,-1.00
2023-03-01T04:50:23.901Z,-1.00
2023-03-01T04:52:50.899Z,-1.00
2023-03-01T04:55:18.050Z,-1.00
2023-03-01T04:57:45.437Z,-1.00
2023-03-01T05:00:21.491Z,-1.00
2023-03-01T05:02:57.612Z,-1.00
2023-03-01T05:05:32.622Z,-1.00
2023-03-01T05:08:19.584Z,-1.00
2023-03-01T05:10:49.717Z,-1.00
2023-03-01T05:13:21.445Z,-1.00
2023-03-01T05:15:49.914Z,-1.00
2023-03-01T05:18:16.776Z,-1.00
2023-03-01T05:20:45.127Z,-1.00
2023-03-01T05:23:11.996Z,-1.00
2023-03-01T05:25:40.608Z,-1.00
2023-03-01T05:28:11.352Z,-1.00
2023-03-01T05:30:39.597Z,-1.00
2023-03-01T05:33:13.615Z,-1.00
2023-03-01T05:35:42.713Z,-1.00
2023-03-01T05:40:59.158Z,62.78
2023-03-01T05:43:27.613Z,53.79
2023-03-01T05:45:57.336Z,52.79
2023-03-01T05:48:27.184Z,52.86
2023-03-01T05:50:56.396Z,53.01
2023-03-01T05:53:24.626Z,52.76
2023-03-01T05:55:53.389Z,51.57
2023-03-01T05:58:22.900Z,52.03
2023-03-01T06:00:52.486Z,51.43
2023-03-01T06:03:27.133Z,52.06
2023-03-01T06:05:58.974Z,51.94
2023-03-01T06:08:28.540Z,51.48
2023-03-01T06:10:57.034Z,51.76
2023-03-01T06:13:25.560Z,52.67
2023-03-01T06:16:00.969Z,52.18
2023-03-01T06:18:31.630Z,51.36
2023-03-01T06:20:59.862Z,51.70
2023-03-01T06:23:28.289Z,51.89
2023-03-01T06:25:56.597Z,51.36
2023-03-01T06:28:25.264Z,51.53
2023-03-01T06:30:58.310Z,51.55
2023-03-01T06:33:29.551Z,51.87
2023-03-01T06:35:57.946Z,52.26
2023-03-01T06:38:26.393Z,52.25
2023-03-01T06:40:55.945Z,51.93
2023-03-01T06:43:24.861Z,51.94
2023-03-01T06:45:53.068Z,52.01
2023-03-01T06:48:21.547Z,52.30
2023-03-01T06:50:50.000Z,51.91
2023-03-01T06:53:18.874Z,52.42
2023-03-01T06:55:47.302Z,52.53
2023-03-01T06:58:15.603Z,53.32
2023-03-01T07:00:45.442Z,52.96
2023-03-01T07:03:13.960Z,52.72
2023-03-01T07:05:42.318Z,52.63
2023-03-01T07:08:10.738Z,52.70
2023-03-01T07:10:39.863Z,53.46
2023-03-01T07:13:08.169Z,53.09
2023-03-01T07:15:36.754Z,53.38
2023-03-01T07:18:05.238Z,52.88
2023-03-01T07:20:35.463Z,52.68
2023-03-01T07:23:03.898Z,52.78
2023-03-01T07:25:33.249Z,53.34
2023-03-01T07:28:01.911Z,52.65
2023-03-01T07:30:30.768Z,52.92
2023-03-01T07:32:59.492Z,52.92
2023-03-01T07:35:28.164Z,53.23
2023-03-01T07:37:56.669Z,54.76
2023-03-01T07:40:25.275Z,56.69
2023-03-01T07:42:59.950Z,57.66
2023-03-01T07:45:44.975Z,57.79
2023-03-01T07:48:13.932Z,56.88
2023-03-01T07:50:42.846Z,56.82
2023-03-01T07:53:11.343Z,55.84
2023-03-01T07:55:39.863Z,55.76
2023-03-01T07:58:08.430Z,55.01
2023-03-01T08:00:37.741Z,54.86
2023-03-01T08:03:06.413Z,54.20
2023-03-01T08:05:35.725Z,53.53
2023-03-01T08:08:06.269Z,52.60
2023-03-01T08:10:34.569Z,52.41
2023-03-01T08:13:02.946Z,51.93
2023-03-01T08:15:31.539Z,51.14
2023-03-01T08:18:04.833Z,50.24
2023-03-01T08:20:33.209Z,50.25
2023-03-01T08:23:01.570Z,49.17
2023-03-01T08:25:30.004Z,49.38
2023-03-01T08:27:58.634Z,48.99
2023-03-01T08:30:27.055Z,48.07
2023-03-01T08:32:55.684Z,48.13
2023-03-01T08:35:25.276Z,48.10
2023-03-01T08:37:54.037Z,47.48
2023-03-01T08:40:22.342Z,47.47
2023-03-01T08:42:51.330Z,47.34
2023-03-01T08:45:19.996Z,47.72
2023-03-01T08:47:48.409Z,47.48
2023-03-01T08:50:17.547Z,47.42
2023-03-01T08:52:46.134Z,47.23
2023-03-01T08:55:18.660Z,47.61
2023-03-01T08:57:46.917Z,46.99
2023-03-01T09:00:16.086Z,47.00
2023-03-01T09:02:44.423Z,46.60
2023-03-01T09:05:12.846Z,46.52
2023-03-01T09:07:43.430Z,46.48
2023-03-01T09:10:12.413Z,46.14
2023-03-01T09:12:40.737Z,45.34
2023-03-01T09:15:10.400Z,45.66
2023-03-01T09:17:39.858Z,44.51
2023-03-01T09:20:11.844Z,44.92
2023-03-01T09:22:42.278Z,44.96
2023-03-01T09:25:10.895Z,45.07
2023-03-01T09:27:39.162Z,44.47
2023-03-01T09:30:09.048Z,44.52
2023-03-01T09:32:38.154Z,44.29
2023-03-01T09:35:07.130Z,44.37
2023-03-01T09:37:36.027Z,43.83
2023-03-01T09:40:06.424Z,44.78
2023-03-01T09:42:35.614Z,43.95
2023-03-01T09:45:25.250Z,43.84
2023-03-01T09:47:53.886Z,43.91
2023-03-01T09:50:22.542Z,43.48
2023-03-01T09:53:12.280Z,43.18
2023-03-01T09:56:06.624Z,43.07
2023-03-01T09:59:02.601Z,43.67
2023-03-01T10:01:50.438Z,42.97
2023-03-01T10:04:37.823Z,42.66
2023-03-01T10:07:13.697Z,42.39
2023-03-01T10:09:44.284Z,43.40
2023-03-01T10:12:20.804Z,42.74
2023-03-01T10:15:11.891Z,43.09
2023-03-01T10:17:44.962Z,43.23
2023-03-01T10:20:24.909Z,43.72
2023-03-01T10:22:56.281Z,43.40
2023-03-01T10:25:54.534Z,44.13
2023-03-01T10:28:25.791Z,43.41
2023-03-01T10:30:54.139Z,43.70
2023-03-01T10:33:27.570Z,43.65
2023-03-01T10:35:56.643Z,44.15
2023-03-01T10:38:26.226Z,44.46
2023-03-01T10:41:00.574Z,44.42
2023-03-01T10:43:44.468Z,44.20
2023-03-01T10:46:36.109Z,44.48
2023-03-01T10:49:20.756Z,44.38
2023-03-01T10:51:51.403Z,44.56
2023-03-01T10:54:23.482Z,44.66
2023-03-01T10:57:02.472Z,44.77
2023-03-01T10:59:34.850Z,44.30
2023-03-01T11:02:35.215Z,44.24
2023-03-01T11:05:14.488Z,44.24
2023-03-01T11:07:53.872Z,44.71
2023-03-01T11:10:36.862Z,44.58
2023-03-01T11:13:10.701Z,44.26
2023-03-01T11:15:40.577Z,44.15
2023-03-01T11:18:20.806Z,44.58
2023-03-01T11:20:49.384Z,44.29
2023-03-01T11:23:19.778Z,44.39
2023-03-01T11:25:56.244Z,44.41
2023-03-01T11:28:26.029Z,44.19
2023-03-01T11:31:09.300Z,43.92
2023-03-01T11:33:58.504Z,43.53
2023-03-01T11:36:43.135Z,43.51
2023-03-01T11:39:22.853Z,44.05
2023-03-01T11:41:53.580Z,43.26
2023-03-01T11:44:29.430Z,43.31
2023-03-01T11:47:20.723Z,43.46
2023-03-01T11:50:21.643Z,43.48
2023-03-01T11:53:02.289Z,43.01
2023-03-01T11:55:56.735Z,42.72
2023-03-01T11:58:40.491Z,42.61
2023-03-01T12:01:21.806Z,42.73
2023-03-01T12:04:13.347Z,42.83
2023-03-01T12:07:01.427Z,42.98
2023-03-01T12:09:51.163Z,43.07
2023-03-01T12:12:22.348Z,43.09
2023-03-01T12:14:56.832Z,42.97
2023-03-01T12:17:40.403Z,43.15
2023-03-01T12:20:24.279Z,43.39
2023-03-01T12:23:20.934Z,43.30
2023-03-01T12:26:22.127Z,44.35
2023-03-01T12:28:58.526Z,43.71
2023-03-01T12:31:47.606Z,43.78
2023-03-01T12:34:22.916Z,43.91
2023-03-01T12:36:54.672Z,44.41
2023-03-01T12:39:28.375Z,44.63
2023-03-01T12:42:13.487Z,44.69
2023-03-01T12:44:55.139Z,44.78
2023-03-01T12:47:46.437Z,44.75
2023-03-01T12:50:31.109Z,44.85
2023-03-01T12:52:59.574Z,45.17
2023-03-01T12:55:33.004Z,45.26
2023-03-01T12:58:37.093Z,45.22
2023-03-01T13:01:24.549Z,45.12
2023-03-01T13:04:12.405Z,45.55
2023-03-01T13:06:59.815Z,45.36
2023-03-01T13:09:52.669Z,45.41
2023-03-01T13:12:59.037Z,45.49
2023-03-01T13:15:29.572Z,45.77
2023-03-01T13:18:20.495Z,45.88
2023-03-01T13:20:50.788Z,45.76
2023-03-01T13:23:22.799Z,45.94
2023-03-01T13:26:00.110Z,46.23
2023-03-01T13:28:48.900Z,46.05
2023-03-01T13:31:17.323Z,45.82
2023-03-01T13:33:50.965Z,46.66
2023-03-01T13:36:28.694Z,46.87
2023-03-01T13:38:58.602Z,46.59
2023-03-01T13:41:42.560Z,47.59
2023-03-01T13:44:33.188Z,47.54
2023-03-01T13:47:15.087Z,47.63
2023-03-01T13:50:03.903Z,47.47
2023-03-01T13:52:44.864Z,47.39
2023-03-01T13:55:17.838Z,47.58
2023-03-01T13:57:54.910Z,47.71
2023-03-01T14:00:27.789Z,47.97
2023-03-01T14:03:30.865Z,48.17
2023-03-01T14:06:17.345Z,48.08
2023-03-01T14:08:48.008Z,47.80
2023-03-01T14:11:34.915Z,47.76
2023-03-01T14:14:15.397Z,48.02
2023-03-01T14:17:07.755Z,48.20
2023-03-01T14:19:36.175Z,48.50
2023-03-01T14:22:23.532Z,48.55
2023-03-01T14:25:01.819Z,49.07
2023-03-01T14:27:43.297Z,49.35
2023-03-01T14:30:19.025Z,49.43
2023-03-01T14:32:57.777Z,49.83
2023-03-01T14:35:28.978Z,50.29
2023-03-01T14:37:57.769Z,51.00
2023-03-01T14:40:31.395Z,51.41
2023-03-01T14:43:00.777Z,51.77
2023-03-01T14:45:30.365Z,52.17
2023-03-01T14:48:03.323Z,51.65
2023-03-01T14:50:33.228Z,51.96
2023-03-01T14:53:06.270Z,51.56
2023-03-01T14:55:38.189Z,51.72
2023-03-01T14:58:07.634Z,52.00
2023-03-01T15:00:36.742Z,52.02
2023-03-01T15:03:14.561Z,51.78
2023-03-01T15:05:44.229Z,52.00
2023-03-01T15:08:21.710Z,51.92
2023-03-01T15:11:00.692Z,52.09
2023-03-01T15:13:34.083Z,51.83
2023-03-01T15:16:06.491Z,51.78
2023-03-01T15:18:36.370Z,51.66
2023-03-01T15:21:19.917Z,51.71
2023-03-01T15:23:56.444Z,51.86
2023-03-01T15:26:30.820Z,51.52
2023-03-01T15:29:00.146Z,51.05
2023-03-01T15:31:31.124Z,51.29
2023-03-01T15:34:09.953Z,51.26
2023-03-01T15:36:45.531Z,50.95
2023-03-01T15:39:38.691Z,51.08
2023-03-01T15:42:10.173Z,50.93
2023-03-01T15:44:44.176Z,51.13
2023-03-01T15:47:30.206Z,51.34
2023-03-01T15:49:59.373Z,50.88
2023-03-01T15:52:36.191Z,51.14
2023-03-01T15:55:07.114Z,50.77
2023-03-01T15:57:36.286Z,50.21
2023-03-01T16:00:12.514Z,50.61
2023-03-01T16:02:41.966Z,50.69
2023-03-01T16:05:24.373Z,51.04
2023-03-01T16:07:53.212Z,51.32
2023-03-01T16:10:23.488Z,51.32
2023-03-01T16:12:54.550Z,51.29
2023-03-01T16:15:26.340Z,51.31
2023-03-01T16:17:55.104Z,51.09
2023-03-01T16:20:28.684Z,51.03
2023-03-01T16:23:03.335Z,51.30
2023-03-01T16:25:33.800Z,51.25
2023-03-01T16:28:10.273Z,51.67
2023-03-01T16:30:40.905Z,51.51
2023-03-01T16:33:28.335Z,52.24
2023-03-01T16:36:01.259Z,53.28
2023-03-01T16:38:32.124Z,53.03
2023-03-01T16:41:00.592Z,52.38
2023-03-01T16:43:30.977Z,52.47
2023-03-01T16:46:00.665Z,52.50
2023-03-01T16:48:29.194Z,52.39
2023-03-01T16:51:00.561Z,52.08
2023-03-01T16:53:47.911Z,53.21
2023-03-01T16:56:18.849Z,52.63
2023-03-01T16:58:48.440Z,52.21
2023-03-01T17:01:18.630Z,51.90
2023-03-01T17:03:47.675Z,51.97
2023-03-01T17:06:17.997Z,51.54
2023-03-01T17:08:48.076Z,51.96
2023-03-01T17:11:18.226Z,51.59
2023-03-01T17:13:56.620Z,51.11
2023-03-01T17:16:25.554Z,51.24
2023-03-01T17:18:53.990Z,51.32
2023-03-01T17:21:22.655Z,51.27
2023-03-01T17:23:52.305Z,51.44
2023-03-01T17:26:21.005Z,51.60
2023-03-01T17:28:52.841Z,51.55
2023-03-01T17:31:21.632Z,52.37
2023-03-01T17:33:50.591Z,52.10
2023-03-01T17:36:19.268Z,51.96
2023-03-01T17:38:50.047Z,51.87
2023-03-01T17:41:19.606Z,51.85
2023-03-01T17:43:49.653Z,51.77
2023-03-01T17:46:18.124Z,51.80
2023-03-01T17:48:49.896Z,51.49
2023-03-01T17:51:38.592Z,52.19
2023-03-01T17:54:06.974Z,51.84
2023-03-01T17:57:15.829Z,64.47
2023-03-01T17:59:44.530Z,54.68
2023-03-01T18:02:13.594Z,53.36
2023-03-01T18:04:42.435Z,53.61
2023-03-01T18:07:11.213Z,53.44
2023-03-01T18:09:39.686Z,53.23
2023-03-01T18:12:08.740Z,53.47
2023-03-01T18:14:37.911Z,53.29
2023-03-01T18:17:12.089Z,53.14
2023-03-01T18:19:46.435Z,53.18
2023-03-01T18:22:15.861Z,52.63
2023-03-01T18:24:47.547Z,52.55
2023-03-01T18:27:15.947Z,52.51
2023-03-01T18:29:44.610Z,52.56
2023-03-01T18:32:13.129Z,52.37
2023-03-01T18:34:41.884Z,51.13
2023-03-01T18:37:10.985Z,51.17
2023-03-01T18:39:39.371Z,50.61
2023-03-01T18:42:08.312Z,50.27
2023-03-01T18:44:36.763Z,50.15
2023-03-01T18:47:05.514Z,49.56
2023-03-01T18:49:34.986Z,49.41
2023-03-01T18:52:04.287Z,49.18
2023-03-01T18:54:32.674Z,49.15
2023-03-01T18:57:01.170Z,48.54
2023-03-01T18:59:32.618Z,48.35
2023-03-01T19:02:01.360Z,48.04
2023-03-01T19:04:30.315Z,47.87
2023-03-01T19:07:02.329Z,47.86
2023-03-01T19:09:36.429Z,47.17
2023-03-01T19:12:06.500Z,46.73
2023-03-01T19:14:35.293Z,46.32
2023-03-01T19:17:05.046Z,46.27
2023-03-01T19:19:33.590Z,45.89
2023-03-01T19:22:05.929Z,45.92
2023-03-01T19:24:36.680Z,45.46
2023-03-01T19:27:06.142Z,45.56
2023-03-01T19:29:36.156Z,45.21
2023-03-01T19:32:04.619Z,44.59
2023-03-01T19:34:33.415Z,44.60
2023-03-01T19:37:02.483Z,44.48
2023-03-01T19:39:30.957Z,44.22
2023-03-01T19:41:59.125Z,44.38
2023-03-01T19:44:31.678Z,44.21
2023-03-01T19:47:01.234Z,43.97
2023-03-01T19:49:30.369Z,43.73
2023-03-01T19:52:04.249Z,43.58
2023-03-01T19:54:33.089Z,43.45
2023-03-01T19:57:01.805Z,43.86
2023-03-01T19:59:30.271Z,44.06
2023-03-01T20:01:59.151Z,43.77
2023-03-01T20:04:27.474Z,43.91
2023-03-01T20:07:01.523Z,43.66
2023-03-01T20:09:30.413Z,43.65
2023-03-01T20:11:58.639Z,43.87
2023-03-01T20:14:27.625Z,43.85
2023-03-01T20:16:56.873Z,43.69
2023-03-01T20:19:25.289Z,44.07
2023-03-01T20:21:54.053Z,44.53
2023-03-01T20:24:24.974Z,44.87
2023-03-01T20:26:53.689Z,44.84
2023-03-01T20:29:22.224Z,44.78
2023-03-01T20:31:50.782Z,44.80
2023-03-01T20:34:19.246Z,44.79
2023-03-01T20:36:47.698Z,44.24
2023-03-01T20:39:18.980Z,44.17
2023-03-01T20:41:47.538Z,44.31
2023-03-01T20:44:18.219Z,43.97
2023-03-01T20:46:47.226Z,43.82
2023-03-01T20:49:15.693Z,43.47
2023-03-01T20:51:44.600Z,43.64
2023-03-01T20:54:14.458Z,43.68
2023-03-01T20:56:43.582Z,44.05
2023-03-01T20:59:12.289Z,43.38
2023-03-01T21:01:41.921Z,43.45
2023-03-01T21:04:10.253Z,43.33
2023-03-01T21:06:40.031Z,42.73
2023-03-01T21:09:08.707Z,42.86
2023-03-01T21:11:41.281Z,43.13
2023-03-01T21:14:10.003Z,43.11
2023-03-01T21:16:38.438Z,42.81
2023-03-01T21:19:12.056Z,43.10
2023-03-01T21:21:41.556Z,43.20
2023-03-01T21:24:10.752Z,42.78
2023-03-01T21:26:39.554Z,42.78
2023-03-01T21:29:08.016Z,42.97
2023-03-01T21:31:38.943Z,43.10
2023-03-01T21:34:07.727Z,42.98
2023-03-01T21:36:39.088Z,43.28
2023-03-01T21:39:07.654Z,43.25
2023-03-01T21:41:37.068Z,43.43
2023-03-01T21:44:07.444Z,43.24
2023-03-01T21:46:38.060Z,43.22
2023-03-01T21:49:07.408Z,43.54
2023-03-01T21:51:36.743Z,43.69
2023-03-01T21:54:07.953Z,43.86
2023-03-01T21:56:39.368Z,44.16
2023-03-01T21:59:09.442Z,44.02
2023-03-01T22:01:37.832Z,44.28
2023-03-01T22:04:06.565Z,44.07
2023-03-01T22:06:43.725Z,44.27
2023-03-01T22:09:12.052Z,44.04
2023-03-01T22:11:47.640Z,44.23
2023-03-01T22:14:18.202Z,44.27
2023-03-01T22:16:47.956Z,44.48
2023-03-01T22:19:16.719Z,44.78
2023-03-01T22:21:49.334Z,45.16
2023-03-01T22:24:19.259Z,45.28
2023-03-01T22:26:48.074Z,45.71
2023-03-01T22:29:26.557Z,46.20
2023-03-01T22:31:55.637Z,46.23
2023-03-01T22:34:24.068Z,46.39
2023-03-01T22:36:53.366Z,46.89
2023-03-01T22:39:21.779Z,46.82
2023-03-01T22:41:51.477Z,46.78
2023-03-01T22:44:21.821Z,46.96
2023-03-01T22:46:52.231Z,46.91
2023-03-01T22:49:20.757Z,47.15
2023-03-01T22:51:49.368Z,46.88
2023-03-01T22:54:17.873Z,46.92
2023-03-01T22:56:49.734Z,47.19
2023-03-01T22:59:19.214Z,47.40
2023-03-01T23:01:48.387Z,47.98
2023-03-01T23:04:18.518Z,48.16
2023-03-01T23:06:56.339Z,49.02
2023-03-01T23:09:30.948Z,49.83
2023-03-01T23:12:01.768Z,50.16
2023-03-01T23:14:31.529Z,49.73
2023-03-01T23:17:01.903Z,50.23
2023-03-01T23:19:30.888Z,50.72
2023-03-01T23:21:59.367Z,51.67
2023-03-01T23:24:31.989Z,51.70
2023-03-01T23:27:01.111Z,51.01
2023-03-01T23:29:30.231Z,50.79
2023-03-01T23:31:59.026Z,51.88
2023-03-01T23:34:28.106Z,52.76
2023-03-01T23:36:58.118Z,51.92
2023-03-01T23:39:26.539Z,52.61
2023-03-01T23:41:54.868Z,52.67
2023-03-01T23:44:25.682Z,53.18
2023-03-01T23:46:54.376Z,53.55
2023-03-01T23:49:23.434Z,53.07
2023-03-01T23:51:52.204Z,52.69
2023-03-01T23:54:22.513Z,52.56
2023-03-01T23:56:50.762Z,52.52
2023-03-01T23:59:22.183Z,52.33
